createdAt,value
2023-05-22T00:01:46.707Z,3.15
2023-05-22T00:04:21.100Z,2.90
2023-05-22T00:06:50.504Z,3.20
2023-05-22T00:09:18.291Z,3.10
2023-05-22T00:11:46.081Z,2.22
2023-05-22T00:14:14.392Z,2.13
2023-05-22T00:16:42.168Z,3.55
2023-05-22T00:19:13.275Z,2.55
2023-05-22T00:21:41.383Z,3.67
2023-05-22T00:24:10.682Z,2.67
2023-05-22T00:26:38.449Z,3.38
2023-05-22T00:29:06.654Z,2.80
2023-05-22T00:31:34.418Z,2.15
2023-05-22T00:34:02.329Z,2.90
2023-05-22T00:36:30.297Z,3.35
2023-05-22T00:38:58.051Z,2.78
2023-05-22T00:41:27.251Z,2.92
2023-05-22T00:43:55.184Z,3.05
2023-05-22T00:46:24.513Z,3.13
2023-05-22T00:48:53.104Z,3.38
2023-05-22T00:51:22.416Z,2.75
2023-05-22T00:53:50.759Z,3.17
2023-05-22T00:56:19.716Z,2.17
2023-05-22T00:58:49.237Z,3.83
2023-05-22T01:01:17.691Z,2.85
2023-05-22T01:03:45.879Z,2.85
2023-05-22T01:06:14.409Z,2.80
2023-05-22T01:08:42.937Z,2.78
2023-05-22T01:11:16.436Z,2.55
2023-05-22T01:13:54.884Z,3.45
2023-05-22T01:16:30.278Z,2.90
2023-05-22T01:19:04.140Z,2.67
2023-05-22T01:21:38.274Z,3.20
2023-05-22T01:24:45.660Z,2.83
2023-05-22T01:27:49.354Z,2.70
2023-05-22T01:30:30.480Z,3.13
2023-05-22T01:33:00.658Z,2.55
2023-05-22T01:35:29.631Z,2.25
2023-05-22T01:37:59.425Z,3.10
2023-05-22T01:40:28.350Z,3.08
2023-05-22T01:42:56.446Z,2.47
2023-05-22T01:45:24.167Z,3.30
2023-05-22T01:47:52.120Z,3.85
2023-05-22T01:50:21.588Z,3.13
2023-05-22T01:53:00.249Z,3.08
2023-05-22T01:55:35.114Z,3.30
2023-05-22T01:58:13.621Z,3.35
2023-05-22T02:00:44.363Z,2.47
2023-05-22T02:03:20.254Z,2.92
2023-05-22T02:05:55.559Z,3.05
2023-05-22T02:08:25.015Z,3.05
2023-05-22T02:10:56.030Z,3.13
2023-05-22T02:13:24.546Z,2.35
2023-05-22T02:15:53.138Z,3.53
2023-05-22T02:18:22.326Z,2.92
2023-05-22T02:20:51.543Z,3.83
2023-05-22T02:23:19.336Z,2.90
2023-05-22T02:25:47.047Z,3.35
2023-05-22T02:28:14.801Z,3.85
2023-05-22T02:30:42.529Z,3.33
2023-05-22T02:33:11.489Z,3.20
2023-05-22T02:35:39.257Z,3.50
2023-05-22T02:38:08.358Z,3.70
2023-05-22T02:40:36.099Z,3.72
2023-05-22T02:43:03.906Z,2.85
2023-05-22T02:45:33.502Z,2.72
2023-05-22T02:48:03.386Z,3.22
2023-05-22T02:50:31.310Z,3.03
2023-05-22T02:52:59.069Z,3.10
2023-05-22T02:55:28.234Z,2.63
2023-05-22T02:57:55.988Z,3.33
2023-05-22T03:00:23.766Z,3.00
2023-05-22T03:02:51.567Z,2.28
2023-05-22T03:05:19.632Z,3.10
2023-05-22T03:07:49.106Z,2.75
2023-05-22T03:10:17.050Z,3.42
2023-05-22T03:12:46.143Z,3.45
2023-05-22T03:15:13.920Z,3.47
2023-05-22T03:17:41.705Z,3.45
2023-05-22T03:20:10.449Z,2.90
2023-05-22T03:22:38.263Z,2.95
2023-05-22T03:25:09.368Z,3.67
2023-05-22T03:27:37.146Z,2.88
2023-05-22T03:30:08.077Z,3.30
2023-05-22T03:32:37.635Z,2.90
2023-05-22T03:35:06.547Z,2.80
2023-05-22T03:37:34.424Z,2.90
2023-05-22T03:40:02.270Z,3.55
2023-05-22T03:42:29.984Z,3.92
2023-05-22T03:44:57.724Z,3.70
2023-05-22T03:47:26.943Z,3.83
2023-05-22T03:49:54.703Z,3.25
2023-05-22T03:52:23.182Z,3.80
2023-05-22T03:54:51.091Z,4.20
2023-05-22T03:57:19.965Z,4.03
2023-05-22T03:59:47.773Z,5.28
2023-05-22T04:02:16.896Z,4.20
2023-05-22T04:04:47.057Z,5.07
2023-05-22T04:07:14.881Z,3.97
2023-05-22T04:09:42.692Z,4.65
2023-05-22T04:12:11.014Z,3.90
2023-05-22T04:14:38.769Z,4.60
2023-05-22T04:17:06.551Z,4.90
2023-05-22T04:19:34.347Z,5.18
2023-05-22T04:22:03.507Z,4.95
2023-05-22T04:24:31.285Z,4.60
2023-05-22T04:27:00.359Z,4.60
2023-05-22T04:29:28.632Z,4.55
2023-05-22T04:31:56.396Z,4.80
2023-05-22T04:34:24.506Z,5.63
2023-05-22T04:36:52.675Z,4.35
2023-05-22T04:39:22.322Z,4.45
2023-05-22T04:41:50.541Z,5.13
2023-05-22T04:44:18.296Z,3.90
2023-05-22T04:46:46.131Z,5.32
2023-05-22T04:49:14.211Z,4.03
2023-05-22T04:51:41.990Z,4.75
2023-05-22T04:54:09.743Z,4.50
2023-05-22T04:56:38.911Z,3.75
2023-05-22T04:59:09.355Z,4.68
2023-05-22T05:01:37.954Z,3.22
2023-05-22T05:04:06.113Z,5.38
2023-05-22T05:06:34.916Z,5.07
2023-05-22T05:09:02.811Z,4.82
2023-05-22T05:11:30.559Z,4.70
2023-05-22T05:13:59.694Z,4.90
2023-05-22T05:16:27.821Z,5.13
2023-05-22T05:18:56.642Z,5.55
2023-05-22T05:21:27.932Z,3.83
2023-05-22T05:23:55.829Z,5.35
2023-05-22T05:26:24.086Z,4.97
2023-05-22T05:28:51.988Z,4.68
2023-05-22T05:31:21.296Z,5.53
2023-05-22T05:33:49.124Z,4.32
2023-05-22T05:36:17.372Z,4.55
2023-05-22T05:38:45.102Z,4.90
2023-05-22T05:41:12.939Z,4.88
2023-05-22T05:43:40.777Z,4.43
2023-05-22T05:46:08.609Z,5.32
2023-05-22T05:48:37.747Z,4.43
2023-05-22T05:51:05.686Z,4.85
2023-05-22T05:53:33.621Z,4.60
2023-05-22T05:56:01.367Z,3.90
2023-05-22T05:58:29.147Z,4.32
2023-05-22T06:00:57.287Z,3.90
2023-05-22T06:03:26.018Z,4.43
2023-05-22T06:05:55.464Z,5.30
2023-05-22T06:08:23.192Z,4.65
2023-05-22T06:10:51.118Z,3.90
2023-05-22T06:13:18.890Z,5.07
2023-05-22T06:15:46.718Z,4.45
2023-05-22T06:18:14.504Z,3.92
2023-05-22T06:20:42.428Z,4.53
2023-05-22T06:23:11.660Z,4.95
2023-05-22T06:25:40.157Z,4.30
2023-05-22T06:28:07.920Z,3.20
2023-05-22T06:30:39.985Z,3.53
2023-05-22T06:33:09.097Z,3.78
2023-05-22T06:35:37.020Z,3.42
2023-05-22T06:38:04.874Z,3.10
2023-05-22T06:40:33.995Z,3.60
2023-05-22T06:43:02.245Z,3.63
2023-05-22T06:45:30.181Z,3.38
2023-05-22T06:47:58.097Z,3.55
2023-05-22T06:50:25.911Z,3.10
2023-05-22T06:52:53.652Z,3.70
2023-05-22T06:55:21.432Z,3.67
2023-05-22T06:57:50.986Z,3.28
2023-05-22T07:00:21.522Z,3.10
2023-05-22T07:02:49.692Z,2.83
2023-05-22T07:05:17.866Z,2.63
2023-05-22T07:07:45.674Z,3.40
2023-05-22T07:10:13.554Z,3.05
2023-05-22T07:12:41.326Z,3.30
2023-05-22T07:15:13.500Z,3.25
2023-05-22T07:17:41.930Z,3.05
2023-05-22T07:20:10.894Z,3.22
2023-05-22T07:22:38.793Z,3.22
2023-05-22T07:25:07.576Z,3.08
2023-05-22T07:27:35.484Z,2.78
2023-05-22T07:30:03.267Z,2.95
2023-05-22T07:32:32.421Z,2.60
2023-05-22T07:35:00.221Z,2.97
2023-05-22T07:37:28.013Z,4.03
2023-05-22T07:39:55.871Z,3.10
2023-05-22T07:42:23.735Z,3.67
2023-05-22T07:44:51.566Z,2.92
2023-05-22T07:47:19.442Z,3.70
2023-05-22T07:49:48.611Z,3.70
2023-05-22T07:52:16.509Z,3.03
2023-05-22T07:54:45.306Z,3.55
2023-05-22T07:57:14.072Z,2.85
2023-05-22T07:59:43.737Z,4.63
2023-05-22T08:02:11.496Z,3.28
2023-05-22T08:04:39.458Z,3.15
2023-05-22T08:07:08.756Z,3.40
2023-05-22T08:09:36.582Z,2.97
2023-05-22T08:12:04.574Z,2.78
2023-05-22T08:14:35.495Z,3.55
2023-05-22T08:17:03.515Z,2.53
2023-05-22T08:19:31.945Z,3.47
2023-05-22T08:22:00.032Z,3.22
2023-05-22T08:24:30.606Z,3.13
2023-05-22T08:27:00.605Z,2.85
2023-05-22T08:29:29.812Z,2.88
2023-05-22T08:31:58.247Z,2.58
2023-05-22T08:34:26.487Z,3.03
2023-05-22T08:36:54.291Z,2.63
2023-05-22T08:39:22.057Z,2.45
2023-05-22T08:41:51.597Z,2.80
2023-05-22T08:44:19.824Z,3.10
2023-05-22T08:46:48.591Z,2.25
2023-05-22T08:49:18.253Z,3.40
2023-05-22T08:51:49.484Z,2.78
2023-05-22T08:54:18.541Z,2.05
2023-05-22T08:56:56.081Z,2.63
2023-05-22T08:59:26.855Z,2.58
2023-05-22T09:01:56.631Z,3.95
2023-05-22T09:04:25.748Z,2.55
2023-05-22T09:06:55.192Z,2.45
2023-05-22T09:09:23.131Z,3.05
2023-05-22T09:11:51.012Z,2.33
2023-05-22T09:14:19.859Z,2.80
2023-05-22T09:16:50.538Z,2.53
2023-05-22T09:19:18.482Z,2.70
2023-05-22T09:21:46.264Z,2.50
2023-05-22T09:24:15.441Z,2.88
2023-05-22T09:26:43.234Z,2.45
2023-05-22T09:29:11.106Z,2.67
2023-05-22T09:31:43.834Z,3.15
2023-05-22T09:36:43.757Z,3.13
2023-05-22T09:39:11.705Z,3.20
2023-05-22T09:41:40.923Z,2.30
2023-05-22T09:44:13.840Z,2.42
2023-05-22T09:46:42.667Z,2.45
2023-05-22T09:49:12.658Z,2.80
2023-05-22T09:51:47.615Z,2.55
2023-05-22T09:54:17.445Z,2.80
2023-05-22T09:56:47.946Z,2.35
2023-05-22T09:59:20.868Z,2.47
2023-05-22T10:01:50.916Z,2.53
2023-05-22T10:04:19.563Z,1.70
2023-05-22T10:06:52.394Z,2.33
2023-05-22T10:09:24.844Z,2.55
2023-05-22T10:11:56.142Z,3.17
2023-05-22T10:14:24.880Z,3.30
2023-05-22T10:16:53.299Z,2.22
2023-05-22T10:19:21.413Z,2.50
2023-05-22T10:21:51.167Z,2.58
2023-05-22T10:24:19.194Z,3.65
2023-05-22T10:26:46.981Z,3.00
2023-05-22T10:29:25.630Z,3.67
2023-05-22T10:32:02.103Z,2.88
2023-05-22T10:34:35.656Z,2.80
2023-05-22T10:37:21.772Z,2.65
2023-05-22T10:40:00.930Z,2.58
2023-05-22T10:42:31.081Z,2.88
2023-05-22T10:45:01.847Z,3.35
2023-05-22T10:47:29.764Z,2.95
2023-05-22T10:50:05.743Z,2.55
2023-05-22T10:52:35.032Z,3.28
2023-05-22T10:55:06.747Z,2.55
2023-05-22T10:57:35.292Z,2.95
2023-05-22T11:00:11.692Z,2.38
2023-05-22T11:02:42.075Z,2.85
2023-05-22T11:05:41.006Z,2.45
2023-05-22T11:08:36.729Z,3.20
2023-05-22T11:11:13.374Z,2.30
2023-05-22T11:13:42.516Z,2.78
2023-05-22T11:16:11.707Z,3.28
2023-05-22T11:18:39.834Z,3.03
2023-05-22T11:21:11.198Z,3.47
2023-05-22T11:23:40.570Z,2.50
2023-05-22T11:26:22.507Z,3.30
2023-05-22T11:28:53.192Z,2.53
2023-05-22T11:31:23.976Z,3.58
2023-05-22T11:33:51.843Z,2.10
2023-05-22T11:36:20.095Z,2.60
2023-05-22T11:38:49.231Z,2.95
2023-05-22T11:41:17.146Z,2.60
2023-05-22T11:43:45.257Z,2.92
2023-05-22T11:46:14.153Z,1.70
2023-05-22T11:48:43.036Z,2.53
2023-05-22T11:51:11.186Z,2.20
2023-05-22T11:53:38.912Z,2.97
2023-05-22T11:56:08.709Z,2.72
2023-05-22T11:58:36.452Z,2.72
2023-05-22T12:01:05.528Z,3.10
2023-05-22T12:03:33.904Z,2.60
2023-05-22T12:06:03.222Z,1.90
2023-05-22T12:08:31.273Z,1.83
2023-05-22T12:10:59.100Z,3.65
2023-05-22T12:13:30.080Z,2.53
2023-05-22T12:16:01.294Z,3.00
2023-05-22T12:18:29.440Z,2.70
2023-05-22T12:20:57.563Z,2.22
2023-05-22T12:23:26.617Z,2.38
2023-05-22T12:25:59.086Z,3.22
2023-05-22T12:28:28.758Z,2.72
2023-05-22T12:30:57.047Z,2.65
2023-05-22T12:33:28.889Z,3.00
2023-05-22T12:35:58.468Z,2.63
2023-05-22T12:38:27.515Z,2.63
2023-05-22T12:40:56.458Z,3.42
2023-05-22T12:43:26.376Z,3.22
2023-05-22T12:45:55.634Z,2.88
2023-05-22T12:48:23.991Z,2.83
2023-05-22T12:50:51.822Z,3.03
2023-05-22T12:53:19.698Z,3.08
2023-05-22T12:55:47.490Z,2.60
2023-05-22T12:58:15.336Z,3.40
2023-05-22T13:00:43.224Z,3.65
2023-05-22T13:03:12.612Z,3.10
2023-05-22T13:05:40.800Z,3.13
2023-05-22T13:08:08.775Z,3.10
2023-05-22T13:10:38.101Z,3.42
2023-05-22T13:13:05.820Z,2.90
2023-05-22T13:15:33.567Z,2.83
2023-05-22T13:18:01.407Z,3.25
2023-05-22T13:20:30.545Z,3.63
2023-05-22T13:22:58.344Z,3.25
2023-05-22T13:25:26.065Z,3.90
2023-05-22T13:27:53.754Z,2.67
2023-05-22T13:30:21.572Z,3.38
2023-05-22T13:32:49.471Z,3.10
2023-05-22T13:35:17.290Z,2.72
2023-05-22T13:37:46.459Z,2.95
2023-05-22T13:40:14.590Z,3.70
2023-05-22T13:42:42.453Z,3.28
2023-05-22T13:45:11.814Z,2.50
2023-05-22T13:47:39.722Z,4.13
2023-05-22T13:50:09.173Z,2.92
2023-05-22T13:52:37.023Z,3.40
2023-05-22T13:55:06.985Z,3.20
2023-05-22T13:57:36.970Z,3.60
2023-05-22T14:00:05.376Z,2.85
2023-05-22T14:02:33.235Z,3.45
2023-05-22T14:05:01.260Z,2.78
2023-05-22T14:07:29.017Z,2.95
2023-05-22T14:09:59.025Z,3.15
2023-05-22T14:12:29.808Z,2.92
2023-05-22T14:14:57.741Z,3.22
2023-05-22T14:17:25.586Z,2.35
2023-05-22T14:19:53.315Z,2.92
2023-05-22T14:22:21.086Z,2.08
2023-05-22T14:24:48.844Z,3.10
2023-05-22T14:27:16.720Z,3.33
2023-05-22T14:29:45.907Z,2.40
2023-05-22T14:32:13.627Z,2.38
2023-05-22T14:34:41.343Z,3.15
2023-05-22T14:37:09.050Z,3.03
2023-05-22T14:39:36.765Z,2.30
2023-05-22T14:42:04.877Z,2.20
2023-05-22T14:44:32.721Z,2.72
2023-05-22T14:47:01.974Z,3.72
2023-05-22T14:49:29.704Z,3.03
2023-05-22T14:51:57.558Z,2.85
2023-05-22T14:54:25.283Z,3.20
2023-05-22T14:56:53.184Z,2.65
2023-05-22T14:59:21.461Z,3.28
2023-05-22T15:01:50.463Z,2.60
2023-05-22T15:04:19.950Z,2.78
2023-05-22T15:06:47.661Z,2.33
2023-05-22T15:09:15.419Z,2.60
2023-05-22T15:11:45.748Z,2.20
2023-05-22T15:14:13.568Z,2.17
2023-05-22T15:16:41.768Z,2.50
2023-05-22T15:19:10.143Z,2.10
2023-05-22T15:21:42.073Z,3.10
2023-05-22T15:24:09.925Z,3.17
2023-05-22T15:26:37.773Z,2.97
2023-05-22T15:29:05.942Z,3.20
2023-05-22T15:31:33.769Z,2.15
2023-05-22T15:34:01.565Z,2.20
2023-05-22T15:36:30.503Z,2.45
2023-05-22T15:38:59.606Z,2.65
2023-05-22T15:41:27.465Z,2.70
2023-05-22T15:43:55.254Z,2.78
2023-05-22T15:46:23.050Z,2.42
2023-05-22T15:48:50.888Z,2.50
2023-05-22T15:51:18.626Z,2.83
2023-05-22T15:53:46.348Z,2.60
2023-05-22T15:56:15.540Z,2.65
2023-05-22T15:58:43.287Z,2.40
2023-05-22T16:01:12.184Z,2.88
2023-05-22T16:03:40.105Z,2.67
2023-05-22T16:06:08.301Z,2.50
2023-05-22T16:08:36.051Z,2.53
2023-05-22T16:11:03.875Z,2.78
2023-05-22T16:13:33.287Z,2.90
2023-05-22T16:16:01.723Z,2.30
2023-05-22T16:18:29.579Z,2.42
2023-05-22T16:20:57.299Z,3.72
2023-05-22T16:23:25.079Z,3.58
2023-05-22T16:25:52.831Z,2.50
2023-05-22T16:28:20.587Z,2.35
2023-05-22T16:30:49.749Z,2.83
2023-05-22T16:33:17.468Z,2.30
2023-05-22T16:35:46.947Z,2.45
2023-05-22T16:38:14.849Z,2.58
2023-05-22T16:40:42.658Z,2.30
2023-05-22T16:43:10.589Z,3.05
2023-05-22T16:45:38.562Z,2.88
2023-05-22T16:48:08.269Z,2.75
2023-05-22T16:50:36.085Z,3.00
2023-05-22T16:53:06.702Z,2.65
2023-05-22T16:55:34.475Z,2.47
2023-05-22T16:58:02.265Z,2.30
2023-05-22T17:00:30.176Z,3.05
2023-05-22T17:02:58.435Z,3.38
2023-05-22T17:05:27.645Z,2.95
2023-05-22T17:07:55.476Z,3.08
2023-05-22T17:10:23.468Z,2.70
2023-05-22T17:12:51.948Z,2.60
2023-05-22T17:15:19.716Z,2.45
2023-05-22T17:17:47.489Z,3.33
2023-05-22T17:20:15.275Z,3.38
2023-05-22T17:22:45.106Z,2.83
2023-05-22T17:25:12.877Z,3.88
2023-05-22T17:27:40.662Z,3.00
2023-05-22T17:30:09.414Z,3.40
2023-05-22T17:32:37.182Z,3.35
2023-05-22T17:35:06.607Z,2.78
2023-05-22T17:37:34.764Z,3.20
2023-05-22T17:40:04.066Z,2.67
2023-05-22T17:42:31.813Z,3.20
2023-05-22T17:44:59.557Z,3.40
2023-05-22T17:47:27.338Z,3.08
2023-05-22T17:49:55.095Z,3.03
2023-05-22T17:52:22.963Z,3.20
2023-05-22T17:54:50.868Z,2.90
2023-05-22T17:57:20.035Z,3.15
2023-05-22T17:59:47.823Z,3.60
2023-05-22T18:02:15.738Z,3.10
2023-05-22T18:04:43.619Z,3.80
2023-05-22T18:07:11.397Z,3.80
2023-05-22T18:09:39.217Z,3.70
2023-05-22T18:12:10.906Z,3.42
2023-05-22T18:14:42.020Z,3.25
2023-05-22T18:17:09.770Z,3.67
2023-05-22T18:19:37.525Z,3.28
2023-05-22T18:22:05.596Z,3.92
2023-05-22T18:24:36.424Z,3.50
2023-05-22T18:27:04.588Z,3.78
2023-05-22T18:29:32.533Z,4.10
2023-05-22T18:32:01.721Z,3.80
2023-05-22T18:34:29.884Z,3.55
2023-05-22T18:36:59.621Z,2.83
2023-05-22T18:39:27.367Z,3.50
2023-05-22T18:41:55.107Z,3.63
2023-05-22T18:44:23.258Z,4.38
2023-05-22T18:46:51.062Z,3.45
2023-05-22T18:49:20.617Z,4.10
2023-05-22T18:51:48.423Z,4.40
2023-05-22T18:54:16.185Z,5.40
2023-05-22T18:56:43.928Z,4.30
2023-05-22T18:59:11.681Z,3.60
2023-05-22T19:01:39.431Z,3.70
2023-05-22T19:04:08.175Z,4.53
2023-05-22T19:06:37.767Z,4.13
2023-05-22T19:09:05.666Z,4.15
2023-05-22T19:11:33.512Z,3.78
2023-05-22T19:14:01.378Z,3.55
2023-05-22T19:16:29.210Z,3.55
2023-05-22T19:18:57.050Z,3.85
2023-05-22T19:21:26.340Z,5.22
2023-05-22T19:23:55.464Z,4.00
2023-05-22T19:26:23.346Z,3.80
2023-05-22T19:28:51.428Z,4.10
2023-05-22T19:31:19.288Z,4.90
2023-05-22T19:33:47.041Z,4.05
2023-05-22T19:36:14.803Z,4.65
2023-05-22T19:38:42.501Z,5.22
2023-05-22T19:41:11.640Z,5.32
2023-05-22T19:43:39.383Z,4.75
2023-05-22T19:46:08.877Z,5.80
2023-05-22T19:48:36.872Z,4.65
2023-05-22T19:51:05.311Z,5.50
2023-05-22T19:53:34.107Z,5.35
2023-05-22T19:56:02.911Z,5.05
2023-05-22T19:58:32.223Z,5.15
2023-05-22T20:00:59.968Z,6.82
2023-05-22T20:03:27.812Z,6.15
2023-05-22T20:05:55.669Z,6.80
2023-05-22T20:08:25.435Z,6.22
2023-05-22T20:10:53.487Z,5.63
2023-05-22T20:13:21.301Z,5.60
2023-05-22T20:15:51.316Z,7.03
2023-05-22T20:18:20.740Z,6.30
2023-05-22T20:20:48.494Z,5.82
2023-05-22T20:23:16.397Z,6.97
2023-05-22T20:25:44.149Z,6.13
2023-05-22T20:28:11.850Z,7.95
2023-05-22T20:30:39.589Z,6.05
2023-05-22T20:33:08.956Z,6.45
2023-05-22T20:35:37.174Z,8.35
2023-05-22T20:38:08.585Z,6.70
2023-05-22T20:40:37.722Z,6.25
2023-05-22T20:43:05.452Z,7.43
2023-05-22T20:45:34.328Z,6.15
2023-05-22T20:48:02.253Z,6.85
2023-05-22T20:50:32.736Z,5.50
2023-05-22T20:53:00.712Z,6.35
2023-05-22T20:55:28.439Z,5.43
2023-05-22T20:57:56.761Z,6.22
2023-05-22T21:00:24.507Z,6.15
2023-05-22T21:02:52.470Z,6.93
2023-05-22T21:05:20.295Z,6.13
2023-05-22T21:07:49.692Z,6.35
2023-05-22T21:10:17.597Z,5.80
2023-05-22T21:12:46.154Z,6.78
2023-05-22T21:15:13.963Z,6.32
2023-05-22T21:17:41.749Z,5.80
2023-05-22T21:20:10.404Z,5.70
2023-05-22T21:22:38.182Z,6.55
2023-05-22T21:25:08.711Z,5.28
2023-05-22T21:27:36.498Z,5.80
2023-05-22T21:30:04.616Z,5.30
2023-05-22T21:32:32.381Z,5.97
2023-05-22T21:35:00.136Z,5.90
2023-05-22T21:37:27.939Z,5.15
2023-05-22T21:39:55.688Z,5.13
2023-05-22T21:42:26.204Z,5.18
2023-05-22T21:44:54.118Z,5.43
2023-05-22T21:47:21.851Z,4.47
2023-05-22T21:49:49.627Z,4.93
2023-05-22T21:52:17.407Z,5.50
2023-05-22T21:54:45.208Z,5.15
2023-05-22T21:57:12.963Z,5.40
2023-05-22T21:59:42.180Z,4.05
2023-05-22T22:02:09.973Z,5.07
2023-05-22T22:04:37.727Z,5.20
2023-05-22T22:07:05.687Z,6.13
2023-05-22T22:09:33.513Z,4.63
2023-05-22T22:12:01.270Z,4.85
2023-05-22T22:14:29.215Z,5.15
2023-05-22T22:16:58.358Z,5.10
2023-05-22T22:19:26.238Z,4.85
2023-05-22T22:21:54.350Z,5.20
2023-05-22T22:24:22.188Z,4.57
2023-05-22T22:26:50.078Z,4.88
2023-05-22T22:29:17.803Z,5.28
2023-05-22T22:31:45.708Z,3.85
2023-05-22T22:34:14.821Z,4.47
2023-05-22T22:36:42.576Z,4.82
2023-05-22T22:39:10.572Z,4.75
2023-05-22T22:41:38.304Z,4.18
2023-05-22T22:44:06.091Z,4.15
2023-05-22T22:46:33.971Z,5.13
2023-05-22T22:49:02.279Z,4.18
2023-05-22T22:51:31.880Z,4.78
2023-05-22T22:53:59.734Z,4.15
2023-05-22T22:56:29.334Z,4.65
2023-05-22T22:58:57.546Z,4.85
2023-05-22T23:01:25.489Z,4.97
2023-05-22T23:03:53.312Z,4.07
2023-05-22T23:06:21.076Z,4.45
2023-05-22T23:08:50.280Z,4.78
2023-05-22T23:11:18.137Z,3.83
2023-05-22T23:13:45.913Z,4.25
2023-05-22T23:16:13.729Z,6.25
2023-05-22T23:18:41.632Z,4.25
2023-05-22T23:21:09.391Z,3.85
2023-05-22T23:23:37.088Z,4.57
2023-05-22T23:26:06.487Z,3.95
2023-05-22T23:28:34.232Z,4.68
2023-05-22T23:31:02.236Z,4.90
2023-05-22T23:33:29.950Z,4.00
2023-05-22T23:35:57.716Z,4.43
2023-05-22T23:38:25.752Z,4.47
2023-05-22T23:40:53.514Z,4.68
2023-05-22T23:43:22.677Z,3.90
2023-05-22T23:45:50.562Z,5.00
2023-05-22T23:48:18.353Z,3.78
2023-05-22T23:50:46.298Z,5.35
2023-05-22T23:53:14.060Z,5.35
2023-05-22T23:55:42.086Z,4.38
2023-05-22T23:58:10.100Z,4.35
